Time;durP1;ratioP1;P1;durP2;ratioP2;P2;SDS_P1;SDS_P2;PMS_P1;PMS_P2;Temp;Humidity;BMP_temperature;BMP_pressure;BME280_temperature;BME280_humidity;BME280_pressure;Samples;Min_cycle;Max_cycle;Signal;HPM_P1;HPM_P2
2023/03/29 00:00:04;;;;;;;4.95;1.40;;;;;;;;;;4937552;28;20059;-66
2023/03/29 00:02:33;;;;;;;4.70;1.52;;;;;;;;;;4920571;29;20083;-68
2023/03/29 00:05:02;;;;;;;3.15;1.20;;;;;;;;;;4919477;29;20157;-64
2023/03/29 00:07:32;;;;;;;2.88;1.35;;;;;;;;;;4919659;28;20059;-66
2023/03/29 00:09:58;;;;;;;3.83;1.35;;;;;;;;;;4920685;29;20079;-65
2023/03/29 00:12:25;;;;;;;3.63;1.55;;;;;;;;;;4918677;28;20063;-67
2023/03/29 00:14:52;;;;;;;4.13;1.30;;;;;;;;;;4945256;28;20051;-67
2023/03/29 00:17:19;;;;;;;4.47;1.40;;;;;;;;;;4940088;28;20063;-67
2023/03/29 00:19:47;;;;;;;1.92;1.30;;;;;;;;;;4920682;29;20151;-64
2023/03/29 00:22:14;;;;;;;3.85;1.30;;;;;;;;;;4922903;29;20125;-63
2023/03/29 00:24:40;;;;;;;4.07;1.80;;;;;;;;;;4927473;28;20159;-64
2023/03/29 00:27:07;;;;;;;5.82;1.40;;;;;;;;;;4920908;29;20083;-65
2023/03/29 00:29:33;;;;;;;3.45;1.33;;;;;;;;;;4937161;28;20062;-66
2023/03/29 00:32:00;;;;;;;3.38;1.40;;;;;;;;;;4938825;28;20138;-67
2023/03/29 00:34:29;;;;;;;5.18;1.70;;;;;;;;;;4934405;28;20146;-65
2023/03/29 00:36:57;;;;;;;3.58;1.30;;;;;;;;;;4915326;29;20055;-64
2023/03/29 00:39:25;;;;;;;6.03;1.50;;;;;;;;;;4919873;29;20166;-65
2023/03/29 00:41:52;;;;;;;4.50;1.50;;;;;;;;;;4921991;29;20059;-65
2023/03/29 00:44:37;;;;;;;3.17;1.25;;;;;;;;;;4917548;29;20054;-66
2023/03/29 00:47:03;;;;;;;3.08;1.23;;;;;;;;;;4909744;29;20059;-64
2023/03/29 00:49:30;;;;;;;2.88;1.40;;;;;;;;;;4920778;28;20150;-67
2023/03/29 00:51:58;;;;;;;5.07;1.90;;;;;;;;;;4938294;29;20127;-66
2023/03/29 00:54:25;;;;;;;4.13;1.30;;;;;;;;;;4910051;28;20417;-66
2023/03/29 00:56:51;;;;;;;3.80;1.40;;;;;;;;;;4931242;28;20270;-67
2023/03/29 00:59:19;;;;;;;4.55;1.27;;;;;;;;;;4936184;28;20059;-66
2023/03/29 01:01:49;;;;;;;2.33;1.40;;;;;;;;;;4913346;29;20107;-64
2023/03/29 01:04:18;;;;;;;4.85;1.83;;;;;;;;;;4918321;29;20047;-65
2023/03/29 01:06:46;;;;;;;4.75;1.27;;;;;;;;;;4910324;29;20051;-63
2023/03/29 01:09:16;;;;;;;2.88;1.30;;;;;;;;;;4920398;29;20075;-66
2023/03/29 01:11:44;;;;;;;3.88;1.33;;;;;;;;;;4935427;28;20063;-64
2023/03/29 01:14:14;;;;;;;2.92;1.48;;;;;;;;;;4921018;29;20388;-67
2023/03/29 01:16:40;;;;;;;3.63;1.48;;;;;;;;;;4938098;28;20170;-64
2023/03/29 01:19:08;;;;;;;3.33;1.50;;;;;;;;;;4955527;28;20067;-64
2023/03/29 01:21:38;;;;;;;4.57;1.60;;;;;;;;;;4924388;29;20142;-65
2023/03/29 01:24:15;;;;;;;3.42;1.38;;;;;;;;;;4920436;29;20299;-65
2023/03/29 01:26:47;;;;;;;2.00;1.20;;;;;;;;;;4926737;28;20121;-64
2023/03/29 01:29:17;;;;;;;3.22;1.50;;;;;;;;;;4930762;28;20145;-64
2023/03/29 01:31:45;;;;;;;2.83;1.05;;;;;;;;;;4935748;28;20059;-63
2023/03/29 01:34:14;;;;;;;3.60;1.50;;;;;;;;;;4918884;29;20066;-64
2023/03/29 01:36:44;;;;;;;3.10;1.60;;;;;;;;;;4909245;29;20063;-63
2023/03/29 01:39:11;;;;;;;2.72;1.45;;;;;;;;;;4938635;29;20166;-67
2023/03/29 01:41:41;;;;;;;4.75;1.40;;;;;;;;;;4934806;28;20154;-66
2023/03/29 01:44:10;;;;;;;6.35;1.60;;;;;;;;;;4919662;29;20063;-64
2023/03/29 01:46:43;;;;;;;2.67;1.27;;;;;;;;;;4927213;28;20058;-65
2023/03/29 01:49:13;;;;;;;3.33;1.40;;;;;;;;;;4921755;29;20150;-67
2023/03/29 01:51:42;;;;;;;4.47;1.42;;;;;;;;;;4935532;28;20141;-64
2023/03/29 01:54:11;;;;;;;3.50;1.65;;;;;;;;;;4918700;29;20078;-65
2023/03/29 01:56:39;;;;;;;3.22;1.50;;;;;;;;;;4909317;29;20537;-66
2023/03/29 01:59:08;;;;;;;3.45;1.50;;;;;;;;;;4929239;29;20090;-63
2023/03/29 02:01:37;;;;;;;4.82;1.33;;;;;;;;;;4884709;29;20050;-64
2023/03/29 02:04:08;;;;;;;4.13;1.80;;;;;;;;;;4891857;29;20055;-65
2023/03/29 02:06:36;;;;;;;7.10;2.13;;;;;;;;;;4915532;29;20162;-64
2023/03/29 02:09:03;;;;;;;3.70;1.40;;;;;;;;;;4898279;29;20067;-63
2023/03/29 02:11:30;;;;;;;5.22;2.28;;;;;;;;;;4902737;29;20052;-64
2023/03/29 02:13:57;;;;;;;3.17;1.33;;;;;;;;;;4889834;29;20343;-67
2023/03/29 02:16:24;;;;;;;4.07;1.30;;;;;;;;;;4917484;29;20143;-65
2023/03/29 02:18:51;;;;;;;4.35;1.30;;;;;;;;;;4906127;29;20146;-66
2023/03/29 02:21:23;;;;;;;3.53;1.52;;;;;;;;;;4914964;29;20126;-64
2023/03/29 02:23:53;;;;;;;5.47;1.45;;;;;;;;;;4915417;29;20087;-66
2023/03/29 02:26:20;;;;;;;3.17;1.23;;;;;;;;;;4898164;29;20143;-66
2023/03/29 02:28:47;;;;;;;3.50;1.55;;;;;;;;;;4902519;29;20066;-67
2023/03/29 02:31:17;;;;;;;2.78;1.38;;;;;;;;;;4897205;29;20350;-67
2023/03/29 02:33:50;;;;;;;3.47;1.60;;;;;;;;;;4911269;29;20131;-65
2023/03/29 02:36:18;;;;;;;3.90;1.48;;;;;;;;;;4910702;29;20069;-65
2023/03/29 02:38:46;;;;;;;4.22;1.23;;;;;;;;;;4912351;29;20158;-66
2023/03/29 02:41:13;;;;;;;4.90;1.48;;;;;;;;;;4901318;29;20060;-65
2023/03/29 02:43:40;;;;;;;2.63;1.33;;;;;;;;;;4900738;29;20142;-65
2023/03/29 02:46:07;;;;;;;4.68;1.45;;;;;;;;;;4896107;29;20058;-65
2023/03/29 02:48:35;;;;;;;3.40;1.50;;;;;;;;;;4901889;29;20056;-66
2023/03/29 02:51:05;;;;;;;2.70;1.42;;;;;;;;;;4884664;29;20056;-65
2023/03/29 02:53:33;;;;;;;4.70;1.48;;;;;;;;;;4882592;29;20144;-66
2023/03/29 02:56:02;;;;;;;4.03;1.70;;;;;;;;;;4905985;29;20115;-66
2023/03/29 02:58:30;;;;;;;3.45;1.35;;;;;;;;;;4902144;29;20204;-65
2023/03/29 03:00:58;;;;;;;2.75;1.30;;;;;;;;;;4899741;29;20052;-66
2023/03/29 03:03:24;;;;;;;3.10;1.33;;;;;;;;;;4903928;29;20143;-66
2023/03/29 03:05:51;;;;;;;4.50;1.55;;;;;;;;;;4915929;29;20059;-63
2023/03/29 03:08:17;;;;;;;4.82;1.63;;;;;;;;;;4922505;29;20189;-66
2023/03/29 03:10:44;;;;;;;3.22;1.50;;;;;;;;;;4939515;28;20063;-65
2023/03/29 03:13:12;;;;;;;3.85;1.67;;;;;;;;;;4920782;29;20059;-64
2023/03/29 03:15:41;;;;;;;3.35;1.10;;;;;;;;;;4937321;28;20096;-64
2023/03/29 03:18:08;;;;;;;;;;;;;;;;;;4931893;28;20063;-63
2023/03/29 03:20:34;;;;;;;3.08;1.30;;;;;;;;;;4939079;28;19926;-66
2023/03/29 03:23:02;;;;;;;4.20;1.17;;;;;;;;;;4920925;29;20111;-66
2023/03/29 03:25:29;;;;;;;2.78;1.35;;;;;;;;;;4937704;28;20134;-64
2023/03/29 03:27:56;;;;;;;4.93;1.33;;;;;;;;;;4931553;28;20055;-64
2023/03/29 03:30:25;;;;;;;4.95;1.40;;;;;;;;;;4936880;28;20161;-66
2023/03/29 03:32:53;;;;;;;5.28;1.48;;;;;;;;;;4936309;29;20062;-63
2023/03/29 03:35:20;;;;;;;2.65;1.40;;;;;;;;;;4939960;28;20055;-65
2023/03/29 03:37:47;;;;;;;3.03;1.40;;;;;;;;;;4952487;28;20078;-66
2023/03/29 03:40:13;;;;;;;4.05;1.55;;;;;;;;;;4935054;28;20086;-63
2023/03/29 03:42:40;;;;;;;2.35;1.10;;;;;;;;;;4918738;29;20051;-66
2023/03/29 03:45:08;;;;;;;4.97;1.50;;;;;;;;;;4940528;28;20062;-65
2023/03/29 03:47:37;;;;;;;4.53;1.65;;;;;;;;;;4936902;28;20059;-64
2023/03/29 03:50:04;;;;;;;3.03;1.30;;;;;;;;;;4916681;29;20075;-65
2023/03/29 03:52:30;;;;;;;5.25;1.33;;;;;;;;;;4916036;29;20125;-65
2023/03/29 03:54:57;;;;;;;4.45;1.58;;;;;;;;;;4939361;29;20055;-67
2023/03/29 03:57:23;;;;;;;4.05;1.40;;;;;;;;;;4921933;29;20059;-66
2023/03/29 03:59:51;;;;;;;4.65;1.70;;;;;;;;;;4937943;29;20111;-65
2023/03/29 04:02:19;;;;;;;4.22;1.80;;;;;;;;;;4927741;28;20069;-66
2023/03/29 04:04:46;;;;;;;5.00;1.57;;;;;;;;;;4939250;29;20059;-67
2023/03/29 04:07:13;;;;;;;3.27;1.60;;;;;;;;;;4931979;29;20083;-65
2023/03/29 04:09:39;;;;;;;4.35;1.50;;;;;;;;;;4923684;29;20105;-67
2023/03/29 04:12:06;;;;;;;3.85;1.42;;;;;;;;;;4926391;28;20250;-67
2023/03/29 04:14:32;;;;;;;4.15;1.63;;;;;;;;;;4923288;29;20150;-64
2023/03/29 04:16:59;;;;;;;4.45;1.38;;;;;;;;;;4919496;28;20138;-64
2023/03/29 04:19:25;;;;;;;3.25;1.50;;;;;;;;;;4922874;29;20081;-66
2023/03/29 04:21:53;;;;;;;3.53;1.45;;;;;;;;;;4933332;29;20094;-64
2023/03/29 04:24:20;;;;;;;4.93;1.17;;;;;;;;;;4923486;29;20079;-66
2023/03/29 04:26:47;;;;;;;4.32;1.48;;;;;;;;;;4921990;29;20110;-67
2023/03/29 04:29:13;;;;;;;4.65;1.70;;;;;;;;;;4944540;28;20086;-64
2023/03/29 04:31:40;;;;;;;3.47;1.48;;;;;;;;;;4935962;29;20123;-64
2023/03/29 04:34:07;;;;;;;5.05;1.67;;;;;;;;;;4927935;28;20055;-67
2023/03/29 04:36:33;;;;;;;5.45;1.67;;;;;;;;;;4922731;29;20122;-65
2023/03/29 04:39:03;;;;;;;4.45;1.77;;;;;;;;;;4919132;29;20075;-64
2023/03/29 04:41:31;;;;;;;3.08;1.50;;;;;;;;;;4937608;28;20043;-66
2023/03/29 04:43:57;;;;;;;2.83;1.45;;;;;;;;;;4914491;29;20062;-64
2023/03/29 04:46:25;;;;;;;6.97;2.08;;;;;;;;;;4938535;29;20077;-67
2023/03/29 04:48:51;;;;;;;3.85;1.50;;;;;;;;;;4933802;28;20396;-66
2023/03/29 04:51:18;;;;;;;3.45;1.42;;;;;;;;;;4935890;29;20090;-65
2023/03/29 04:53:46;;;;;;;3.97;1.88;;;;;;;;;;4933671;28;20145;-66
2023/03/29 04:56:13;;;;;;;4.32;1.70;;;;;;;;;;4928868;28;20066;-66
2023/03/29 04:58:41;;;;;;;4.15;1.48;;;;;;;;;;4932461;28;20055;-64
2023/03/29 05:01:07;;;;;;;4.07;1.60;;;;;;;;;;4910647;29;20051;-65
2023/03/29 05:03:34;;;;;;;7.15;2.03;;;;;;;;;;4935286;28;20066;-66
2023/03/29 05:06:05;;;;;;;3.55;1.58;;;;;;;;;;4926350;28;20136;-66
2023/03/29 05:08:32;;;;;;;4.55;1.63;;;;;;;;;;4937348;28;20059;-63
2023/03/29 05:10:58;;;;;;;4.07;1.75;;;;;;;;;;4934086;28;20114;-64
2023/03/29 05:13:26;;;;;;;3.10;1.40;;;;;;;;;;4916785;29;20095;-66
2023/03/29 05:15:52;;;;;;;4.70;1.70;;;;;;;;;;4931386;28;20066;-66
2023/03/29 05:18:19;;;;;;;3.55;1.73;;;;;;;;;;4933569;28;22141;-66
2023/03/29 05:20:46;;;;;;;5.18;1.70;;;;;;;;;;4917185;29;20142;-63
2023/03/29 05:23:16;;;;;;;;;;;;;;;;;;4916297;29;20110;-65
2023/03/29 05:25:42;;;;;;;2.60;1.30;;;;;;;;;;4933785;28;19926;-66
2023/03/29 05:28:09;;;;;;;4.05;1.48;;;;;;;;;;4927323;28;20078;-67
2023/03/29 05:30:37;;;;;;;3.80;1.45;;;;;;;;;;4933678;28;20146;-67
2023/03/29 05:33:04;;;;;;;3.30;1.50;;;;;;;;;;4935720;28;20051;-68
2023/03/29 05:35:34;;;;;;;6.40;1.50;;;;;;;;;;4932378;29;20055;-66
2023/03/29 05:38:03;;;;;;;3.35;1.35;;;;;;;;;;4928325;28;20059;-69
2023/03/29 05:40:30;;;;;;;3.25;1.60;;;;;;;;;;4932502;28;20106;-68
2023/03/29 05:42:58;;;;;;;3.60;1.50;;;;;;;;;;4908984;29;20130;-64
2023/03/29 05:45:27;;;;;;;3.60;1.60;;;;;;;;;;4934909;28;20055;-68
2023/03/29 05:47:56;;;;;;;5.15;1.75;;;;;;;;;;4946683;28;20055;-68
2023/03/29 05:50:22;;;;;;;3.92;1.42;;;;;;;;;;4936932;29;20066;-66
2023/03/29 05:52:49;;;;;;;6.05;1.55;;;;;;;;;;4912580;28;20082;-69
2023/03/29 05:55:16;;;;;;;3.05;1.45;;;;;;;;;;4929769;28;20083;-65
2023/03/29 05:57:45;;;;;;;3.97;1.67;;;;;;;;;;4942930;28;20051;-68
2023/03/29 06:00:22;;;;;;;3.00;1.40;;;;;;;;;;4903991;28;20078;-68
2023/03/29 06:02:48;;;;;;;4.70;1.75;;;;;;;;;;4926855;28;20066;-70
2023/03/29 06:05:16;;;;;;;3.88;1.52;;;;;;;;;;4925608;29;20122;-67
2023/03/29 06:07:43;;;;;;;4.23;1.60;;;;;;;;;;4916532;29;20083;-67
2023/03/29 06:10:12;;;;;;;4.32;1.73;;;;;;;;;;4910714;29;20368;-69
2023/03/29 06:12:39;;;;;;;5.10;1.90;;;;;;;;;;4931699;28;20055;-68
2023/03/29 06:15:07;;;;;;;5.68;1.90;;;;;;;;;;4920320;29;20169;-70
2023/03/29 06:17:36;;;;;;;4.10;1.85;;;;;;;;;;4916238;29;20086;-68
2023/03/29 06:20:09;;;;;;;6.22;1.58;;;;;;;;;;4928990;28;20062;-67
2023/03/29 06:22:37;;;;;;;6.55;1.65;;;;;;;;;;4941616;28;20082;-68
2023/03/29 06:25:04;;;;;;;4.93;1.75;;;;;;;;;;4932999;28;20465;-68
2023/03/29 06:27:31;;;;;;;6.18;1.95;;;;;;;;;;4936136;28;20055;-64
2023/03/29 06:29:58;;;;;;;3.72;1.63;;;;;;;;;;4923943;29;20062;-65
2023/03/29 06:32:28;;;;;;;4.03;1.60;;;;;;;;;;4915725;28;20063;-65
2023/03/29 06:34:55;;;;;;;3.80;1.80;;;;;;;;;;4924277;29;20054;-64
2023/03/29 06:37:22;;;;;;;3.85;1.40;;;;;;;;;;4935306;28;20130;-67
2023/03/29 06:39:55;;;;;;;3.67;1.48;;;;;;;;;;4916379;29;20526;-65
2023/03/29 06:42:22;;;;;;;5.38;1.92;;;;;;;;;;4930429;28;20134;-67
2023/03/29 06:44:52;;;;;;;3.75;1.50;;;;;;;;;;4934074;28;20066;-65
2023/03/29 06:47:18;;;;;;;6.85;1.50;;;;;;;;;;4933539;29;20063;-65
2023/03/29 06:49:45;;;;;;;5.15;1.70;;;;;;;;;;4939042;28;20051;-65
2023/03/29 06:52:11;;;;;;;5.95;1.65;;;;;;;;;;4897451;28;20075;-66
2023/03/29 06:54:38;;;;;;;4.32;1.77;;;;;;;;;;4927495;28;20126;-67
2023/03/29 06:57:06;;;;;;;5.82;1.60;;;;;;;;;;4934713;28;20047;-67
2023/03/29 06:59:35;;;;;;;4.70;1.60;;;;;;;;;;4924899;28;20055;-65
2023/03/29 07:02:02;;;;;;;4.20;1.85;;;;;;;;;;4912054;29;20149;-65
2023/03/29 07:04:30;;;;;;;4.90;2.17;;;;;;;;;;4937019;28;20063;-65
2023/03/29 07:07:01;;;;;;;4.22;2.00;;;;;;;;;;4919508;29;20063;-64
2023/03/29 07:09:29;;;;;;;5.35;1.63;;;;;;;;;;4916894;29;20090;-67
2023/03/29 07:11:55;;;;;;;5.88;2.13;;;;;;;;;;4925145;29;20067;-65
2023/03/29 07:14:37;;;;;;;5.20;1.80;;;;;;;;;;4933231;28;20073;-66
2023/03/29 07:17:05;;;;;;;4.10;1.80;;;;;;;;;;4930095;29;20054;-66
2023/03/29 07:19:32;;;;;;;4.72;1.85;;;;;;;;;;4941022;28;20071;-67
2023/03/29 07:21:59;;;;;;;8.25;2.35;;;;;;;;;;4903917;28;20520;-67
2023/03/29 07:24:28;;;;;;;3.53;1.60;;;;;;;;;;4925032;28;20051;-66
2023/03/29 07:26:56;;;;;;;5.78;1.80;;;;;;;;;;4921464;29;20075;-67
2023/03/29 07:29:22;;;;;;;6.63;1.85;;;;;;;;;;4943164;28;20054;-64
2023/03/29 07:31:49;;;;;;;3.53;1.95;;;;;;;;;;4905611;28;20089;-67
2023/03/29 07:34:17;;;;;;;3.70;1.77;;;;;;;;;;4921746;29;20063;-65
2023/03/29 07:36:44;;;;;;;4.45;1.70;;;;;;;;;;4919262;29;20087;-67
2023/03/29 07:39:12;;;;;;;5.05;2.33;;;;;;;;;;4938581;28;20055;-64
2023/03/29 07:41:41;;;;;;;6.13;2.40;;;;;;;;;;4907809;28;20127;-66
2023/03/29 07:44:08;;;;;;;6.72;2.20;;;;;;;;;;4915070;29;20061;-67
2023/03/29 07:46:34;;;;;;;4.72;2.08;;;;;;;;;;4935616;28;20059;-64
2023/03/29 07:49:01;;;;;;;6.22;2.30;;;;;;;;;;4914665;29;20051;-67
2023/03/29 07:51:30;;;;;;;4.85;1.85;;;;;;;;;;4908707;28;20090;-68
2023/03/29 07:53:58;;;;;;;5.07;1.92;;;;;;;;;;4917849;28;20063;-67
2023/03/29 07:56:25;;;;;;;4.53;1.95;;;;;;;;;;4906250;29;20074;-68
2023/03/29 07:58:54;;;;;;;5.07;2.13;;;;;;;;;;4939995;29;20062;-64
2023/03/29 08:01:24;;;;;;;6.47;2.40;;;;;;;;;;4912387;28;20133;-66
2023/03/29 08:03:50;;;;;;;7.50;2.40;;;;;;;;;;4929254;28;20055;-65
2023/03/29 08:06:17;;;;;;;9.52;2.50;;;;;;;;;;4920526;28;20059;-64
2023/03/29 08:08:47;;;;;;;7.68;2.40;;;;;;;;;;4909094;29;20137;-66
2023/03/29 08:11:14;;;;;;;5.23;2.10;;;;;;;;;;4940609;28;20142;-64
2023/03/29 08:13:40;;;;;;;6.40;2.42;;;;;;;;;;4900193;29;20063;-65
2023/03/29 08:16:08;;;;;;;4.80;1.90;;;;;;;;;;4910793;29;20067;-66
2023/03/29 08:18:34;;;;;;;5.60;2.20;;;;;;;;;;4923290;29;20161;-67
2023/03/29 08:21:01;;;;;;;5.20;2.03;;;;;;;;;;4922008;29;20066;-64
2023/03/29 08:23:28;;;;;;;6.20;2.15;;;;;;;;;;4904730;28;20055;-68
2023/03/29 08:25:59;;;;;;;5.20;2.13;;;;;;;;;;4933252;29;20097;-66
2023/03/29 08:28:25;;;;;;;6.17;2.50;;;;;;;;;;4911618;28;20141;-68
2023/03/29 08:30:53;;;;;;;10.93;2.80;;;;;;;;;;4932874;28;20058;-67
2023/03/29 08:33:20;;;;;;;6.20;1.92;;;;;;;;;;4921510;28;20063;-65
2023/03/29 08:35:48;;;;;;;6.50;2.10;;;;;;;;;;4921647;29;20066;-66
2023/03/29 08:38:15;;;;;;;9.75;2.58;;;;;;;;;;4916863;29;20051;-65
2023/03/29 08:40:41;;;;;;;9.05;2.67;;;;;;;;;;4926853;29;20146;-64
2023/03/29 08:43:15;;;;;;;8.00;2.47;;;;;;;;;;4905205;29;20058;-65
2023/03/29 08:45:47;;;;;;;6.07;2.30;;;;;;;;;;4921508;29;20153;-67
2023/03/29 08:48:16;;;;;;;5.70;2.63;;;;;;;;;;4906710;29;20057;-68
2023/03/29 08:50:44;;;;;;;8.85;2.58;;;;;;;;;;4937559;28;20098;-66
2023/03/29 08:53:13;;;;;;;6.05;2.65;;;;;;;;;;4897052;29;20086;-65
2023/03/29 08:55:41;;;;;;;6.50;2.40;;;;;;;;;;4932537;28;20081;-65
2023/03/29 08:58:12;;;;;;;10.45;2.58;;;;;;;;;;4918735;28;20059;-67
2023/03/29 09:00:42;;;;;;;10.50;3.50;;;;;;;;;;4922481;29;20059;-68
2023/03/29 09:03:11;;;;;;;6.40;2.60;;;;;;;;;;4923010;28;20138;-64
2023/03/29 09:05:37;;;;;;;;;;;;;;;;;;4923343;28;20059;-66
2023/03/29 09:08:06;;;;;;;5.85;2.53;;;;;;;;;;4913791;29;19938;-65
2023/03/29 09:10:37;;;;;;;10.32;2.75;;;;;;;;;;4911007;29;20059;-65
2023/03/29 09:13:12;;;;;;;7.60;3.03;;;;;;;;;;4906604;29;20719;-67
2023/03/29 09:15:44;;;;;;;7.05;3.05;;;;;;;;;;4925879;28;20161;-68
2023/03/29 09:18:13;;;;;;;8.05;3.15;;;;;;;;;;4914740;29;20059;-64
2023/03/29 09:20:43;;;;;;;7.30;3.28;;;;;;;;;;4922602;29;20130;-67
2023/03/29 09:23:17;;;;;;;7.07;3.05;;;;;;;;;;4924967;29;20165;-65
2023/03/29 09:25:51;;;;;;;11.45;3.00;;;;;;;;;;4910548;28;20078;-67
2023/03/29 09:28:21;;;;;;;7.25;3.10;;;;;;;;;;4954107;28;20062;-67
2023/03/29 09:30:51;;;;;;;7.72;3.17;;;;;;;;;;4940461;28;20059;-67
2023/03/29 09:33:22;;;;;;;6.18;2.78;;;;;;;;;;4892288;29;20058;-66
2023/03/29 09:35:55;;;;;;;8.15;2.92;;;;;;;;;;4920178;29;20063;-68
2023/03/29 09:38:21;;;;;;;8.45;3.45;;;;;;;;;;4900966;29;20137;-66
2023/03/29 09:40:50;;;;;;;8.73;3.20;;;;;;;;;;4917630;28;20058;-67
2023/03/29 09:43:18;;;;;;;9.15;3.40;;;;;;;;;;4913186;28;20065;-67
2023/03/29 09:45:49;;;;;;;;;;;;;;;;;;4916569;28;20065;-67
2023/03/29 09:48:19;;;;;;;9.73;3.15;;;;;;;;;;4951362;28;19934;-67
2023/03/29 09:50:50;;;;;;;8.32;3.55;;;;;;;;;;4936354;28;20109;-67
2023/03/29 09:53:17;;;;;;;8.15;3.50;;;;;;;;;;4904285;29;20062;-65
2023/03/29 09:55:45;;;;;;;10.57;3.47;;;;;;;;;;4934690;28;20130;-67
2023/03/29 09:58:12;;;;;;;;;;;;;;;;;;4912434;29;20055;-66
2023/03/29 10:00:39;;;;;;;10.90;3.00;;;;;;;;;;4918486;28;19999;-66
2023/03/29 10:03:05;;;;;;;10.25;3.45;;;;;;;;;;4924315;28;20354;-66
2023/03/29 10:05:35;;;;;;;10.95;3.67;;;;;;;;;;4917462;28;20062;-65
2023/03/29 10:08:07;;;;;;;8.88;3.45;;;;;;;;;;4904471;29;20055;-66
2023/03/29 10:10:35;;;;;;;7.80;3.50;;;;;;;;;;4940365;29;20059;-66
2023/03/29 10:13:06;;;;;;;8.35;3.40;;;;;;;;;;4935161;28;20063;-66
2023/03/29 10:15:33;;;;;;;8.57;3.83;;;;;;;;;;4920546;29;20065;-66
2023/03/29 10:18:02;;;;;;;9.23;3.80;;;;;;;;;;4924309;28;20221;-66
2023/03/29 10:20:29;;;;;;;9.80;3.95;;;;;;;;;;4907983;29;20070;-65
2023/03/29 10:22:58;;;;;;;9.38;3.72;;;;;;;;;;4921540;29;20062;-66
2023/03/29 10:25:26;;;;;;;8.25;3.50;;;;;;;;;;4942392;29;20059;-65
2023/03/29 10:27:54;;;;;;;7.20;3.47;;;;;;;;;;4906933;28;20141;-64
2023/03/29 10:30:21;;;;;;;9.15;3.58;;;;;;;;;;4906085;29;20055;-65
2023/03/29 10:32:52;;;;;;;8.60;3.50;;;;;;;;;;4919405;28;20055;-63
2023/03/29 10:35:21;;;;;;;9.82;4.18;;;;;;;;;;4929481;28;20059;-66
2023/03/29 10:37:50;;;;;;;11.32;3.75;;;;;;;;;;4896948;29;20064;-65
2023/03/29 10:40:21;;;;;;;9.13;4.32;;;;;;;;;;4930958;29;20142;-65
2023/03/29 10:42:49;;;;;;;12.32;4.60;;;;;;;;;;4912378;29;20066;-67
2023/03/29 10:45:20;;;;;;;10.13;3.78;;;;;;;;;;4931977;28;20064;-65
2023/03/29 10:47:48;;;;;;;10.57;4.40;;;;;;;;;;4924408;28;20133;-64
2023/03/29 10:50:15;;;;;;;9.10;3.28;;;;;;;;;;4914184;29;20062;-65
2023/03/29 10:52:44;;;;;;;10.68;4.47;;;;;;;;;;4931347;29;21209;-66
2023/03/29 10:55:12;;;;;;;9.57;3.67;;;;;;;;;;4918736;29;20058;-66
2023/03/29 10:57:50;;;;;;;7.82;3.88;;;;;;;;;;4937067;28;20083;-65
2023/03/29 11:00:18;;;;;;;9.73;4.30;;;;;;;;;;4936153;29;20055;-64
2023/03/29 11:02:55;;;;;;;10.32;4.47;;;;;;;;;;4924820;28;20189;-67
2023/03/29 11:05:28;;;;;;;10.48;4.13;;;;;;;;;;4911656;29;20090;-67
2023/03/29 11:08:05;;;;;;;9.18;4.07;;;;;;;;;;4916989;29;20059;-66
2023/03/29 11:10:39;;;;;;;10.70;4.00;;;;;;;;;;4919620;29;20064;-68
2023/03/29 11:13:11;;;;;;;9.98;4.43;;;;;;;;;;4890748;29;20118;-64
2023/03/29 11:15:42;;;;;;;12.65;4.60;;;;;;;;;;4918624;29;20078;-66
2023/03/29 11:18:24;;;;;;;8.68;4.05;;;;;;;;;;4918993;29;20082;-67
2023/03/29 11:20:54;;;;;;;9.85;4.50;;;;;;;;;;4911580;29;20062;-69
2023/03/29 11:23:26;;;;;;;10.00;4.25;;;;;;;;;;4902422;29;20063;-65
2023/03/29 11:25:58;;;;;;;10.35;4.20;;;;;;;;;;4902755;29;20132;-65
2023/03/29 11:28:30;;;;;;;9.55;3.97;;;;;;;;;;4900328;28;20058;-67
2023/03/29 11:30:59;;;;;;;8.70;4.25;;;;;;;;;;4928174;28;20048;-65
2023/03/29 11:33:31;;;;;;;10.13;4.63;;;;;;;;;;4916350;28;20059;-65
2023/03/29 11:36:01;;;;;;;9.68;4.57;;;;;;;;;;4903438;28;20047;-65
2023/03/29 11:38:32;;;;;;;9.98;4.18;;;;;;;;;;4926531;28;20061;-65
2023/03/29 11:41:01;;;;;;;12.23;4.70;;;;;;;;;;4923951;28;20051;-65
2023/03/29 11:43:27;;;;;;;;;;;;;;;;;;4910873;28;20061;-65
2023/03/29 11:45:59;;;;;;;9.52;3.92;;;;;;;;;;4913065;29;20013;-70
2023/03/29 11:48:31;;;;;;;9.75;4.30;;;;;;;;;;4919070;29;20059;-68
2023/03/29 11:51:01;;;;;;;10.43;4.60;;;;;;;;;;4921204;29;20051;-67
2023/03/29 11:53:31;;;;;;;10.65;4.55;;;;;;;;;;4889996;29;20150;-67
2023/03/29 11:56:02;;;;;;;9.65;4.35;;;;;;;;;;4906809;29;20126;-67
2023/03/29 11:58:32;;;;;;;12.05;4.78;;;;;;;;;;4923600;29;20083;-67
2023/03/29 12:01:02;;;;;;;9.43;4.50;;;;;;;;;;4915208;29;20047;-65
2023/03/29 12:03:35;;;;;;;9.57;4.15;;;;;;;;;;4939031;28;20091;-67
2023/03/29 12:06:06;;;;;;;9.57;4.72;;;;;;;;;;4907818;29;20398;-68
2023/03/29 12:08:33;;;;;;;10.45;4.15;;;;;;;;;;4939745;29;20095;-66
2023/03/29 12:11:06;;;;;;;11.00;4.50;;;;;;;;;;4933726;28;20101;-67
2023/03/29 12:13:34;;;;;;;9.40;4.57;;;;;;;;;;4909294;29;20059;-65
2023/03/29 12:16:08;;;;;;;11.02;4.60;;;;;;;;;;4901084;29;21771;-66
2023/03/29 12:18:39;;;;;;;9.93;4.32;;;;;;;;;;4912219;29;20095;-66
2023/03/29 12:21:11;;;;;;;9.82;4.10;;;;;;;;;;4905372;28;20065;-65
2023/03/29 12:23:38;;;;;;;11.35;3.85;;;;;;;;;;4914604;29;20166;-64
2023/03/29 12:26:07;;;;;;;9.13;4.63;;;;;;;;;;4910400;28;20151;-67
2023/03/29 12:28:41;;;;;;;10.88;4.50;;;;;;;;;;4928843;28;20058;-69
2023/03/29 12:31:16;;;;;;;9.20;4.28;;;;;;;;;;4938528;28;20051;-66
2023/03/29 12:33:55;;;;;;;11.13;4.60;;;;;;;;;;4917730;29;20063;-68
2023/03/29 12:36:35;;;;;;;8.68;4.28;;;;;;;;;;4935823;29;20118;-67
2023/03/29 12:39:07;;;;;;;10.38;4.53;;;;;;;;;;4918231;29;20055;-68
2023/03/29 12:41:36;;;;;;;8.75;3.90;;;;;;;;;;4936356;28;20142;-66
2023/03/29 12:44:05;;;;;;;10.32;4.82;;;;;;;;;;4911344;29;20182;-65
2023/03/29 12:46:34;;;;;;;9.48;4.07;;;;;;;;;;4929942;28;20051;-65
2023/03/29 12:49:06;;;;;;;8.90;4.20;;;;;;;;;;4947825;28;20055;-65
2023/03/29 12:51:34;;;;;;;9.25;4.70;;;;;;;;;;4909772;29;20051;-67
2023/03/29 12:54:06;;;;;;;13.48;4.72;;;;;;;;;;4932510;28;20071;-66
2023/03/29 12:56:36;;;;;;;9.35;4.57;;;;;;;;;;4938741;29;20066;-66
2023/03/29 12:59:06;;;;;;;9.63;4.72;;;;;;;;;;4941606;28;20055;-67
2023/03/29 13:01:35;;;;;;;9.85;4.53;;;;;;;;;;4917288;29;20051;-67
2023/03/29 13:04:17;;;;;;;10.93;4.35;;;;;;;;;;4921261;28;20054;-68
2023/03/29 13:07:04;;;;;;;9.48;4.25;;;;;;;;;;4934615;28;20054;-66
2023/03/29 13:09:35;;;;;;;9.48;4.40;;;;;;;;;;4907079;29;20055;-67
2023/03/29 13:12:06;;;;;;;9.05;4.38;;;;;;;;;;4899368;28;20123;-65
2023/03/29 13:14:36;;;;;;;11.95;4.25;;;;;;;;;;4923351;28;20146;-66
2023/03/29 13:17:08;;;;;;;11.98;4.57;;;;;;;;;;4936883;29;20055;-67
2023/03/29 13:19:39;;;;;;;10.60;4.72;;;;;;;;;;4917803;29;20063;-65
2023/03/29 13:22:12;;;;;;;8.75;4.22;;;;;;;;;;4916135;29;20055;-67
2023/03/29 13:24:47;;;;;;;12.90;4.90;;;;;;;;;;4932996;28;20059;-68
2023/03/29 13:27:18;;;;;;;10.70;4.65;;;;;;;;;;4937727;28;20150;-65
2023/03/29 13:29:56;;;;;;;10.27;4.63;;;;;;;;;;4915943;29;20134;-66
2023/03/29 13:32:30;;;;;;;10.30;4.38;;;;;;;;;;4905730;29;20130;-68
2023/03/29 13:34:59;;;;;;;10.68;4.53;;;;;;;;;;4933280;28;20055;-65
2023/03/29 13:37:31;;;;;;;10.38;4.80;;;;;;;;;;4925885;28;20070;-68
2023/03/29 13:39:57;;;;;;;10.15;4.45;;;;;;;;;;4920907;28;20118;-66
2023/03/29 13:42:37;;;;;;;9.15;4.78;;;;;;;;;;4911315;28;20511;-68
2023/03/29 13:45:09;;;;;;;8.90;4.63;;;;;;;;;;4939014;28;20070;-66
2023/03/29 13:47:44;;;;;;;9.48;4.55;;;;;;;;;;4936316;29;20162;-67
2023/03/29 13:50:15;;;;;;;12.55;4.70;;;;;;;;;;4910599;29;20118;-68
2023/03/29 13:52:46;;;;;;;9.23;4.32;;;;;;;;;;4934477;29;20083;-65
2023/03/29 13:55:15;;;;;;;8.50;4.15;;;;;;;;;;4929941;28;20082;-68
2023/03/29 13:57:49;;;;;;;8.20;4.15;;;;;;;;;;4952098;28;20284;-65
2023/03/29 14:00:19;;;;;;;9.38;4.22;;;;;;;;;;4917619;28;21153;-66
2023/03/29 14:02:48;;;;;;;7.68;4.15;;;;;;;;;;4898769;29;20047;-69
2023/03/29 14:05:16;;;;;;;9.20;4.57;;;;;;;;;;4924275;28;20054;-68
2023/03/29 14:07:43;;;;;;;;;;;;;;;;;;4920426;29;20162;-66
2023/03/29 14:10:12;;;;;;;8.38;4.00;;;;;;;;;;4927176;28;20125;-68
2023/03/29 14:12:38;;;;;;;9.70;4.45;;;;;;;;;;4935085;29;20146;-68
2023/03/29 14:15:06;;;;;;;9.23;4.65;;;;;;;;;;4918864;29;20080;-64
2023/03/29 14:17:34;;;;;;;8.80;4.45;;;;;;;;;;4916210;29;20059;-68
2023/03/29 14:20:07;;;;;;;9.75;4.20;;;;;;;;;;4927481;29;20063;-65
2023/03/29 14:22:34;;;;;;;10.70;4.60;;;;;;;;;;4921309;28;20055;-64
2023/03/29 14:25:01;;;;;;;10.05;4.38;;;;;;;;;;4918614;29;20109;-66
2023/03/29 14:27:29;;;;;;;8.65;4.30;;;;;;;;;;4939418;28;20066;-65
2023/03/29 14:29:56;;;;;;;11.50;4.70;;;;;;;;;;4939355;28;20074;-68
2023/03/29 14:32:27;;;;;;;12.35;4.72;;;;;;;;;;4913482;28;20066;-68
2023/03/29 14:34:54;;;;;;;9.18;4.50;;;;;;;;;;4936361;28;20055;-66
2023/03/29 14:37:25;;;;;;;11.02;4.28;;;;;;;;;;4933106;28;20071;-68
2023/03/29 14:39:51;;;;;;;9.57;4.20;;;;;;;;;;4916259;29;20059;-68
2023/03/29 14:42:22;;;;;;;9.43;4.60;;;;;;;;;;4902484;29;21854;-67
2023/03/29 14:44:50;;;;;;;8.75;4.38;;;;;;;;;;4919684;29;20055;-68
2023/03/29 14:47:26;;;;;;;9.45;4.43;;;;;;;;;;4908222;29;20077;-70
2023/03/29 14:49:55;;;;;;;9.68;4.22;;;;;;;;;;4933757;28;20089;-68
2023/03/29 14:52:25;;;;;;;8.48;4.13;;;;;;;;;;4911561;28;20069;-67